createdAt,value
2019-01-27T00:00:37.948Z,31.77
2019-01-27T00:03:07.247Z,30.43
2019-01-27T00:05:36.421Z,31.57
2019-01-27T00:08:06.182Z,31.13
2019-01-27T00:10:35.438Z,29.60
2019-01-27T00:13:04.789Z,30.03
2019-01-27T00:15:34.038Z,29.03
2019-01-27T00:18:03.175Z,27.70
2019-01-27T00:20:32.618Z,27.20
2019-01-27T00:23:01.894Z,28.50
2019-01-27T00:25:31.078Z,27.07
2019-01-27T00:28:00.202Z,26.97
2019-01-27T00:30:29.749Z,26.23
2019-01-27T00:32:58.954Z,27.30
2019-01-27T00:35:28.165Z,26.13
2019-01-27T00:37:57.413Z,26.90
2019-01-27T00:40:26.541Z,27.73
2019-01-27T00:42:55.983Z,27.73
2019-01-27T00:45:25.150Z,27.37
2019-01-27T00:47:54.279Z,27.83
2019-01-27T00:50:23.403Z,26.77
2019-01-27T00:52:52.630Z,27.93
2019-01-27T00:55:21.830Z,28.60
2019-01-27T00:57:51.201Z,28.63
2019-01-27T01:00:23.049Z,28.33
2019-01-27T01:02:52.258Z,28.70
2019-01-27T01:05:21.714Z,27.50
2019-01-27T01:07:51.154Z,26.13
2019-01-27T01:10:20.978Z,28.37
2019-01-27T01:12:50.260Z,25.63
2019-01-27T01:15:20.141Z,28.87
2019-01-27T01:17:49.280Z,27.27
2019-01-27T01:20:19.713Z,29.33
2019-01-27T01:22:49.522Z,27.77
2019-01-27T01:25:21.483Z,27.57
2019-01-27T01:27:51.202Z,26.00
2019-01-27T01:30:23.049Z,27.30
2019-01-27T01:32:52.249Z,24.87
2019-01-27T01:35:21.413Z,25.97
2019-01-27T01:37:50.693Z,25.50
2019-01-27T01:40:20.246Z,26.43
2019-01-27T01:42:49.401Z,23.67
2019-01-27T01:45:29.625Z,22.93
2019-01-27T01:47:59.005Z,22.33
2019-01-27T01:50:28.222Z,21.40
2019-01-27T01:52:57.470Z,21.77
2019-01-27T01:55:27.186Z,20.67
2019-01-27T01:57:56.357Z,19.80
2019-01-27T02:00:26.977Z,19.40
2019-01-27T02:02:56.230Z,19.20
2019-01-27T02:05:25.420Z,20.10
2019-01-27T02:07:54.606Z,19.80
2019-01-27T02:10:23.891Z,19.73
2019-01-27T02:12:53.433Z,19.90
2019-01-27T02:16:00.903Z,19.77
2019-01-27T02:18:30.306Z,20.33
2019-01-27T02:20:59.647Z,19.93
2019-01-27T02:23:28.826Z,18.50
2019-01-27T02:25:58.081Z,17.90
2019-01-27T02:28:27.289Z,18.23
2019-01-27T02:30:56.477Z,17.97
2019-01-27T02:33:25.627Z,17.87
2019-01-27T02:35:54.801Z,17.70
2019-01-27T02:38:23.939Z,18.53
2019-01-27T02:40:53.077Z,17.00
2019-01-27T02:43:22.251Z,17.80
2019-01-27T02:45:51.394Z,17.60
2019-01-27T02:48:20.722Z,18.57
2019-01-27T02:50:50.047Z,19.00
2019-01-27T02:53:19.178Z,17.47
2019-01-27T02:55:48.367Z,19.97
2019-01-27T02:58:17.509Z,18.00
2019-01-27T03:00:46.750Z,18.17
2019-01-27T03:03:15.933Z,19.03
2019-01-27T03:06:04.130Z,18.17
2019-01-27T03:08:44.777Z,18.57
2019-01-27T03:11:13.982Z,19.00
2019-01-27T03:13:43.159Z,18.17
2019-01-27T03:16:13.032Z,20.13
2019-01-27T03:18:42.283Z,18.40
2019-01-27T03:21:11.529Z,19.33
2019-01-27T03:23:40.762Z,21.17
2019-01-27T03:26:09.891Z,20.20
2019-01-27T03:28:39.097Z,20.87
2019-01-27T03:31:08.347Z,20.37
2019-01-27T03:33:37.491Z,21.67
2019-01-27T03:36:06.653Z,19.97
2019-01-27T03:38:35.821Z,20.90
2019-01-27T03:41:05.358Z,21.73
2019-01-27T03:43:34.509Z,23.60
2019-01-27T03:46:04.234Z,22.17
2019-01-27T03:48:33.374Z,21.57
2019-01-27T03:51:02.506Z,21.70
2019-01-27T03:53:31.918Z,22.23
2019-01-27T03:56:01.062Z,21.57
2019-01-27T03:58:30.326Z,22.03
2019-01-27T04:00:59.534Z,22.33
2019-01-27T04:03:28.658Z,22.47
2019-01-27T04:05:57.843Z,22.83
2019-01-27T04:08:26.965Z,21.97
2019-01-27T04:10:56.234Z,22.00
2019-01-27T04:13:25.405Z,20.93
2019-01-27T04:15:54.544Z,21.90
2019-01-27T04:18:23.688Z,23.37
2019-01-27T04:20:52.862Z,24.83
2019-01-27T04:23:22.114Z,24.17
2019-01-27T04:25:51.334Z,22.53
2019-01-27T04:28:20.497Z,22.37
2019-01-27T04:30:49.716Z,24.03
2019-01-27T04:33:18.943Z,23.03
2019-01-27T04:35:48.169Z,22.73
2019-01-27T04:38:17.333Z,23.10
2019-01-27T04:40:46.498Z,23.03
2019-01-27T04:43:15.704Z,23.13
2019-01-27T04:45:45.010Z,21.60
2019-01-27T04:48:14.170Z,22.17
2019-01-27T04:50:43.394Z,22.60
2019-01-27T04:53:12.537Z,24.60
2019-01-27T04:55:41.734Z,21.90
2019-01-27T04:58:10.923Z,23.80
2019-01-27T05:00:40.171Z,22.97
2019-01-27T05:03:34.262Z,24.77
2019-01-27T05:06:03.382Z,24.30
2019-01-27T05:08:32.521Z,24.40
2019-01-27T05:11:01.726Z,23.00
2019-01-27T05:13:30.942Z,22.47
2019-01-27T05:16:00.082Z,23.07
2019-01-27T05:18:29.250Z,23.37
2019-01-27T05:20:58.469Z,22.10
2019-01-27T05:23:27.615Z,23.33
2019-01-27T05:25:56.827Z,23.33
2019-01-27T05:28:25.960Z,22.03
2019-01-27T05:30:55.152Z,23.03
2019-01-27T05:33:24.395Z,21.93
2019-01-27T05:35:53.564Z,22.23
2019-01-27T05:38:22.801Z,20.83
2019-01-27T05:40:51.934Z,21.77
2019-01-27T05:43:21.078Z,22.10
2019-01-27T05:45:50.241Z,21.73
2019-01-27T05:48:19.461Z,21.60
2019-01-27T05:50:48.636Z,21.77
2019-01-27T05:53:17.834Z,22.63
2019-01-27T05:55:46.996Z,24.13
2019-01-27T05:58:16.153Z,23.77
2019-01-27T06:00:46.609Z,25.47
2019-01-27T06:03:15.753Z,25.53
2019-01-27T06:05:44.895Z,24.30
2019-01-27T06:08:14.076Z,25.37
2019-01-27T06:10:43.261Z,24.63
2019-01-27T06:13:12.392Z,28.23
2019-01-27T06:15:41.522Z,28.07
2019-01-27T06:18:10.714Z,26.33
2019-01-27T06:20:39.866Z,26.83
2019-01-27T06:23:09.022Z,28.43
2019-01-27T06:25:39.294Z,26.57
2019-01-27T06:28:08.535Z,28.77
2019-01-27T06:30:37.765Z,28.10
2019-01-27T06:33:22.297Z,26.07
2019-01-27T06:35:51.418Z,28.20
2019-01-27T06:38:20.635Z,28.27
2019-01-27T06:40:49.907Z,27.03
2019-01-27T06:43:19.085Z,26.33
2019-01-27T06:45:48.241Z,26.37
2019-01-27T06:48:17.899Z,29.57
2019-01-27T06:50:47.166Z,28.67
2019-01-27T06:53:16.354Z,26.23
2019-01-27T06:55:45.682Z,28.47
2019-01-27T06:58:14.885Z,30.23
2019-01-27T07:00:58.775Z,29.77
2019-01-27T07:04:05.409Z,30.10
2019-01-27T07:06:56.554Z,31.63
2019-01-27T07:09:50.391Z,29.00
2019-01-27T07:12:35.627Z,28.97
2019-01-27T07:15:28.750Z,29.00
2019-01-27T07:18:17.133Z,31.33
2019-01-27T07:21:04.953Z,29.87
2019-01-27T07:23:53.202Z,30.03
2019-01-27T07:26:40.461Z,30.00
2019-01-27T07:29:28.674Z,31.27
2019-01-27T07:32:16.857Z,31.33
2019-01-27T07:35:04.662Z,30.77
2019-01-27T07:37:42.278Z,30.50
2019-01-27T07:40:42.767Z,27.87
2019-01-27T07:43:48.870Z,27.70
2019-01-27T07:46:28.613Z,30.67
2019-01-27T07:49:10.081Z,27.53
2019-01-27T07:52:01.242Z,27.23
2019-01-27T07:54:38.561Z,27.17
2019-01-27T07:57:25.117Z,26.63
2019-01-27T08:00:25.364Z,27.70
2019-01-27T08:03:12.169Z,24.93
2019-01-27T08:05:59.689Z,26.07
2019-01-27T08:08:42.072Z,25.13
2019-01-27T08:11:31.500Z,26.33
2019-01-27T08:14:19.134Z,22.90
2019-01-27T08:16:54.850Z,21.20
2019-01-27T08:19:40.321Z,19.13
2019-01-27T08:22:33.613Z,18.63
2019-01-27T08:25:30.745Z,17.70
2019-01-27T08:28:18.949Z,19.43
2019-01-27T08:30:55.463Z,19.27
2019-01-27T08:33:49.397Z,18.73
2019-01-27T08:36:49.377Z,18.80
2019-01-27T08:39:40.345Z,17.37
2019-01-27T08:42:27.221Z,18.63
2019-01-27T08:45:18.185Z,18.30
2019-01-27T08:47:47.384Z,19.07
2019-01-27T08:50:17.673Z,18.50
2019-01-27T08:52:46.803Z,19.20
2019-01-27T08:55:16.305Z,19.97
2019-01-27T08:57:45.601Z,19.10
2019-01-27T09:00:17.786Z,18.90
2019-01-27T09:03:01.251Z,19.70
2019-01-27T09:05:58.541Z,19.73
2019-01-27T09:08:45.714Z,21.90
2019-01-27T09:11:36.973Z,20.37
2019-01-27T09:14:24.793Z,21.73
2019-01-27T09:17:25.145Z,21.50
2019-01-27T09:20:16.158Z,21.20
2019-01-27T09:22:59.117Z,22.07
2019-01-27T09:25:53.582Z,22.73
2019-01-27T09:28:33.425Z,21.73
2019-01-27T09:31:20.949Z,21.43
2019-01-27T09:34:15.213Z,21.47
2019-01-27T09:37:12.378Z,20.43
2019-01-27T09:40:00.594Z,20.83
2019-01-27T09:42:57.673Z,21.63
2019-01-27T09:45:57.720Z,22.10
2019-01-27T09:48:35.021Z,20.30
2019-01-27T09:51:41.970Z,20.77
2019-01-27T09:54:36.057Z,21.03
2019-01-27T09:57:23.157Z,21.07
2019-01-27T10:00:11.341Z,22.83
2019-01-27T10:03:08.971Z,22.87
2019-01-27T10:05:50.629Z,25.77
2019-01-27T10:08:39.973Z,27.10
2019-01-27T10:11:28.558Z,27.13
2019-01-27T10:14:25.963Z,28.43
2019-01-27T10:17:23.367Z,28.60
2019-01-27T10:20:07.489Z,26.77
2019-01-27T10:22:43.846Z,28.30
2019-01-27T10:25:26.634Z,35.50
2019-01-27T10:28:05.795Z,41.37
2019-01-27T10:30:54.115Z,41.30
2019-01-27T10:33:39.010Z,37.13
2019-01-27T10:36:25.284Z,37.43
2019-01-27T10:39:00.041Z,32.53
2019-01-27T10:41:40.585Z,34.43
2019-01-27T10:44:33.290Z,35.10
2019-01-27T10:47:24.482Z,35.60
2019-01-27T10:50:31.126Z,38.40
2019-01-27T10:53:34.963Z,32.43
2019-01-27T10:56:16.558Z,28.10
2019-01-27T10:59:02.533Z,30.03
2019-01-27T11:02:06.198Z,23.93
2019-01-27T11:04:54.375Z,21.47
2019-01-27T11:07:48.370Z,19.03
2019-01-27T11:10:42.417Z,19.27
2019-01-27T11:13:30.668Z,18.13
2019-01-27T11:16:28.306Z,17.73
2019-01-27T11:19:16.518Z,18.40
2019-01-27T11:22:05.732Z,16.80
2019-01-27T11:24:42.566Z,14.90
2019-01-27T11:27:33.005Z,14.87
2019-01-27T11:30:13.138Z,15.50
2019-01-27T11:33:10.289Z,15.40
2019-01-27T11:35:51.590Z,14.40
2019-01-27T11:38:34.765Z,14.23
2019-01-27T11:41:23.654Z,14.43
2019-01-27T11:44:01.868Z,13.70
2019-01-27T11:46:46.698Z,12.80
2019-01-27T11:49:40.769Z,12.30
2019-01-27T11:52:16.575Z,12.23
2019-01-27T11:54:45.755Z,14.27
2019-01-27T11:57:14.884Z,14.93
2019-01-27T11:59:44.050Z,13.57
2019-01-27T12:02:13.173Z,15.47
2019-01-27T12:04:42.453Z,14.37
2019-01-27T12:07:11.701Z,15.20
2019-01-27T12:09:41.097Z,14.23
2019-01-27T12:12:22.441Z,13.33
2019-01-27T12:14:51.625Z,14.53
2019-01-27T12:17:20.846Z,14.47
2019-01-27T12:19:49.990Z,14.53
2019-01-27T12:22:19.242Z,15.97
2019-01-27T12:24:48.925Z,15.87
2019-01-27T12:27:18.138Z,15.23
2019-01-27T12:29:47.294Z,14.40
2019-01-27T12:32:16.458Z,13.23
2019-01-27T12:34:45.601Z,12.73
2019-01-27T12:37:14.910Z,14.80
2019-01-27T12:39:44.050Z,14.27
2019-01-27T12:42:54.777Z,14.90
2019-01-27T12:45:24.157Z,14.50
2019-01-27T12:47:53.385Z,15.87
2019-01-27T12:50:22.530Z,12.37
2019-01-27T12:52:52.102Z,15.67
2019-01-27T12:55:21.322Z,15.93
2019-01-27T12:57:51.757Z,14.87
2019-01-27T13:00:27.897Z,15.67
2019-01-27T13:02:57.101Z,14.47
2019-01-27T13:05:26.266Z,16.33
2019-01-27T13:07:55.402Z,17.47
2019-01-27T13:10:24.534Z,17.53
2019-01-27T13:12:53.699Z,17.63
2019-01-27T13:15:23.069Z,15.97
2019-01-27T13:17:52.221Z,16.97
2019-01-27T13:20:21.413Z,15.17
2019-01-27T13:22:50.602Z,15.57
2019-01-27T13:25:19.986Z,16.73
2019-01-27T13:27:52.162Z,16.83
2019-01-27T13:30:22.879Z,15.47
2019-01-27T13:32:52.249Z,15.77
2019-01-27T13:35:21.722Z,16.60
2019-01-27T13:37:51.009Z,16.10
2019-01-27T13:40:21.566Z,16.10
2019-01-27T13:42:50.871Z,15.60
2019-01-27T13:45:22.439Z,15.30
2019-01-27T13:47:51.636Z,16.33
2019-01-27T13:50:20.770Z,13.80
2019-01-27T13:52:50.019Z,14.07
2019-01-27T13:55:21.679Z,13.10
2019-01-27T13:57:50.825Z,14.37
2019-01-27T14:00:25.049Z,13.43
2019-01-27T14:02:54.198Z,14.40
2019-01-27T14:05:23.554Z,13.77
2019-01-27T14:07:52.700Z,14.70
2019-01-27T14:10:23.926Z,14.03
2019-01-27T14:12:53.232Z,13.77
2019-01-27T14:15:24.724Z,13.73
2019-01-27T14:17:53.974Z,12.33
2019-01-27T14:20:23.123Z,12.97
2019-01-27T14:22:52.418Z,14.63
2019-01-27T14:25:22.927Z,14.27
2019-01-27T14:27:52.192Z,14.80
2019-01-27T14:30:23.642Z,14.70
2019-01-27T14:32:52.809Z,15.53
2019-01-27T14:35:22.150Z,16.47
2019-01-27T14:37:51.451Z,18.07
2019-01-27T14:40:22.858Z,19.13
2019-01-27T14:42:52.016Z,18.83
2019-01-27T14:45:30.505Z,21.60
2019-01-27T14:47:59.682Z,20.50
2019-01-27T14:50:34.413Z,21.80
2019-01-27T14:53:03.925Z,20.60
2019-01-27T14:55:33.105Z,20.57
2019-01-27T14:58:02.269Z,21.43
2019-01-27T15:00:36.324Z,20.30
2019-01-27T15:03:05.153Z,19.37
2019-01-27T15:05:34.519Z,19.50
2019-01-27T15:08:03.957Z,18.43
2019-01-27T15:10:33.326Z,19.73
2019-01-27T15:13:02.557Z,20.67
2019-01-27T15:15:31.795Z,19.67
2019-01-27T15:18:00.957Z,19.13
2019-01-27T15:20:45.010Z,18.30
2019-01-27T15:23:14.233Z,18.30
2019-01-27T15:25:43.482Z,18.40
2019-01-27T15:28:12.666Z,17.37
2019-01-27T15:30:41.824Z,17.50
2019-01-27T15:33:10.992Z,14.87
2019-01-27T15:35:40.161Z,13.93
2019-01-27T15:38:09.297Z,13.53
2019-01-27T15:40:38.575Z,13.33
2019-01-27T15:43:07.815Z,13.97
2019-01-27T15:45:37.072Z,14.60
2019-01-27T15:48:07.098Z,13.97
2019-01-27T15:50:36.361Z,13.93
2019-01-27T15:53:05.629Z,14.30
2019-01-27T15:55:35.285Z,14.27
2019-01-27T15:58:05.017Z,12.80
2019-01-27T16:00:34.169Z,12.23
2019-01-27T16:03:03.338Z,10.17
2019-01-27T16:05:32.720Z,12.83
2019-01-27T16:08:01.949Z,12.27
2019-01-27T16:10:31.123Z,10.93
2019-01-27T16:13:00.305Z,10.87
2019-01-27T16:15:31.294Z,10.23
2019-01-27T16:18:00.511Z,10.67
2019-01-27T16:20:29.655Z,11.27
2019-01-27T16:23:27.110Z,12.43
2019-01-27T16:25:57.285Z,12.77
2019-01-27T16:28:26.454Z,12.93
2019-01-27T16:31:09.198Z,12.30
2019-01-27T16:34:00.231Z,13.23
2019-01-27T16:36:31.240Z,12.53
2019-01-27T16:39:00.354Z,12.47
2019-01-27T16:41:29.498Z,13.00
2019-01-27T16:43:58.683Z,12.13
2019-01-27T16:46:27.913Z,11.67
2019-01-27T16:48:57.055Z,11.97
2019-01-27T16:51:27.081Z,12.00
2019-01-27T16:53:56.219Z,10.73
2019-01-27T16:56:25.349Z,11.43
2019-01-27T16:58:54.523Z,11.03
2019-01-27T17:01:23.829Z,12.53
2019-01-27T17:03:52.965Z,15.00
2019-01-27T17:06:22.111Z,16.53
2019-01-27T17:08:51.236Z,18.33
2019-01-27T17:11:20.457Z,18.83
2019-01-27T17:13:49.598Z,18.73
2019-01-27T17:16:18.726Z,19.83
2019-01-27T17:18:52.631Z,19.83
2019-01-27T17:21:21.790Z,22.87
2019-01-27T17:23:51.025Z,24.67
2019-01-27T17:26:20.216Z,26.23
2019-01-27T17:28:49.372Z,28.80
2019-01-27T17:31:18.549Z,33.43
2019-01-27T17:33:47.842Z,34.30
2019-01-27T17:36:17.053Z,36.63
2019-01-27T17:38:46.218Z,40.53
2019-01-27T17:41:15.413Z,48.97
2019-01-27T17:43:44.609Z,48.90
2019-01-27T17:46:13.785Z,51.40
2019-01-27T17:48:42.966Z,53.30
2019-01-27T17:51:12.231Z,52.83
2019-01-27T17:53:52.983Z,54.90
2019-01-27T17:56:22.128Z,58.73
2019-01-27T17:59:17.225Z,55.13
2019-01-27T18:02:14.790Z,45.77
2019-01-27T18:05:18.233Z,42.77
2019-01-27T18:08:04.854Z,39.67
2019-01-27T18:10:42.314Z,41.33
2019-01-27T18:13:18.299Z,39.07
2019-01-27T18:15:47.550Z,41.00
2019-01-27T18:18:16.764Z,41.47
2019-01-27T18:20:45.900Z,46.70
2019-01-27T18:23:15.076Z,45.73
2019-01-27T18:25:44.249Z,45.27
2019-01-27T18:28:13.394Z,48.50
2019-01-27T18:30:43.094Z,53.13
2019-01-27T18:33:12.327Z,49.40
2019-01-27T18:35:41.465Z,47.63
2019-01-27T18:38:11.011Z,48.53
2019-01-27T18:40:40.160Z,49.83
2019-01-27T18:43:09.324Z,49.60
2019-01-27T18:45:38.653Z,46.87
2019-01-27T18:48:07.962Z,48.43
2019-01-27T18:50:37.182Z,47.60
2019-01-27T18:53:26.313Z,48.17
2019-01-27T18:56:02.561Z,47.13
2019-01-27T18:58:49.806Z,50.03
2019-01-27T19:01:40.806Z,43.33
2019-01-27T19:04:21.373Z,43.00
2019-01-27T19:07:10.886Z,31.80
2019-01-27T19:09:57.254Z,26.00
2019-01-27T19:12:36.854Z,21.10
2019-01-27T19:15:21.454Z,20.83
2019-01-27T19:18:07.890Z,16.40
2019-01-27T19:21:08.093Z,16.60
2019-01-27T19:24:11.510Z,13.53
2019-01-27T19:26:59.717Z,13.83
2019-01-27T19:29:50.638Z,13.03
2019-01-27T19:32:49.274Z,12.63
2019-01-27T19:35:40.218Z,14.30
2019-01-27T19:38:28.519Z,13.00
2019-01-27T19:41:15.449Z,12.50
2019-01-27T19:44:01.025Z,12.30
2019-01-27T19:46:55.234Z,13.83
2019-01-27T19:49:33.605Z,13.33
2019-01-27T19:52:17.086Z,12.67
2019-01-27T19:54:56.174Z,13.63
2019-01-27T19:57:48.550Z,15.47
2019-01-27T20:00:26.768Z,12.53
2019-01-27T20:03:10.614Z,14.13
2019-01-27T20:06:04.970Z,13.70
2019-01-27T20:09:05.234Z,14.17
2019-01-27T20:11:46.944Z,14.17
2019-01-27T20:14:34.058Z,15.10
2019-01-27T20:17:10.467Z,17.43
2019-01-27T20:19:58.444Z,16.00
2019-01-27T20:22:36.462Z,14.67
2019-01-27T20:25:24.833Z,14.97
2019-01-27T20:28:11.954Z,15.00
2019-01-27T20:31:18.687Z,15.27
2019-01-27T20:34:00.070Z,15.73
2019-01-27T20:36:46.986Z,15.47
2019-01-27T20:39:27.579Z,15.93
2019-01-27T20:42:33.895Z,15.30
2019-01-27T20:45:08.669Z,16.43
2019-01-27T20:47:51.097Z,17.43
2019-01-27T20:50:34.715Z,17.43
2019-01-27T20:53:25.717Z,18.97
2019-01-27T20:56:20.102Z,22.27
2019-01-27T20:58:57.608Z,22.00
2019-01-27T21:01:42.902Z,23.00
2019-01-27T21:04:35.282Z,23.37
2019-01-27T21:07:16.374Z,25.23
2019-01-27T21:10:12.970Z,25.57
2019-01-27T21:13:10.564Z,25.73
2019-01-27T21:15:47.991Z,26.63
2019-01-27T21:18:41.227Z,26.10
2019-01-27T21:21:10.436Z,26.13
2019-01-27T21:23:39.725Z,24.70
2019-01-27T21:26:08.909Z,24.47
2019-01-27T21:28:38.105Z,23.07
2019-01-27T21:31:07.343Z,23.60
2019-01-27T21:33:36.590Z,24.83
2019-01-27T21:36:05.831Z,25.33
2019-01-27T21:38:34.981Z,23.50
2019-01-27T21:41:04.356Z,24.83
2019-01-27T21:43:33.540Z,25.43
2019-01-27T21:46:02.693Z,25.23
2019-01-27T21:48:31.918Z,25.30
2019-01-27T21:51:01.122Z,27.33
2019-01-27T21:53:30.278Z,26.87
2019-01-27T21:55:59.555Z,25.97
2019-01-27T21:58:28.765Z,24.67
2019-01-27T22:00:57.939Z,23.13
2019-01-27T22:03:27.368Z,22.57
2019-01-27T22:05:56.713Z,22.70
2019-01-27T22:08:26.037Z,21.27
2019-01-27T22:10:55.626Z,22.23
2019-01-27T22:13:24.879Z,23.10
2019-01-27T22:15:54.163Z,23.37
2019-01-27T22:18:23.407Z,22.50
2019-01-27T22:21:12.891Z,22.83
2019-01-27T22:23:42.439Z,23.03
2019-01-27T22:26:11.650Z,24.20
2019-01-27T22:28:40.807Z,24.63
2019-01-27T22:31:10.014Z,23.37
2019-01-27T22:33:39.226Z,23.77
2019-01-27T22:36:08.369Z,22.20
2019-01-27T22:38:37.593Z,20.27
2019-01-27T22:41:06.793Z,21.50
2019-01-27T22:43:35.958Z,20.43
2019-01-27T22:46:05.113Z,20.03
2019-01-27T22:48:34.274Z,19.53
2019-01-27T22:51:03.485Z,20.57
2019-01-27T22:53:32.694Z,20.07
2019-01-27T22:56:01.906Z,20.40
2019-01-27T22:58:31.086Z,21.07
2019-01-27T23:01:06.305Z,20.67
2019-01-27T23:03:38.129Z,20.90
2019-01-27T23:06:07.271Z,20.83
2019-01-27T23:08:36.601Z,20.87
2019-01-27T23:11:05.789Z,20.23
2019-01-27T23:13:34.942Z,21.33
2019-01-27T23:16:04.685Z,20.17
2019-01-27T23:18:33.852Z,20.30
2019-01-27T23:21:02.978Z,22.37
2019-01-27T23:23:32.105Z,22.17
2019-01-27T23:26:01.274Z,21.37
2019-01-27T23:28:30.613Z,22.03
2019-01-27T23:30:59.790Z,21.77
2019-01-27T23:33:29.041Z,22.30
2019-01-27T23:35:58.194Z,22.37
2019-01-27T23:38:27.369Z,22.93
2019-01-27T23:40:56.619Z,23.07
2019-01-27T23:43:25.889Z,22.47
2019-01-27T23:45:55.093Z,22.43
2019-01-27T23:48:24.264Z,21.97
2019-01-27T23:50:53.394Z,21.33
2019-01-27T23:53:22.549Z,22.73
2019-01-27T23:55:51.849Z,23.80
2019-01-27T23:58:21.049Z,23.47
